createdAt,value
2019-01-03T00:01:57.933Z,98157.16
2019-01-03T00:04:31.280Z,98164.00
2019-01-03T00:07:15.709Z,98167.77
2019-01-03T00:09:52.270Z,98165.67
2019-01-03T00:12:36.449Z,98176.64
2019-01-03T00:15:16.236Z,98176.97
2019-01-03T00:17:46.555Z,98180.59
2019-01-03T00:20:20.520Z,98183.30
2019-01-03T00:23:05.112Z,98191.48
2019-01-03T00:25:32.859Z,98193.86
2019-01-03T00:28:03.740Z,97937.32
2019-01-03T00:30:37.263Z,98202.14
2019-01-03T00:33:20.090Z,98200.83
2019-01-03T00:35:50.840Z,98202.64
2019-01-03T00:38:18.590Z,98214.11
2019-01-03T00:40:49.319Z,98205.44
2019-01-03T00:43:22.686Z,98209.23
2019-01-03T00:46:07.346Z,98211.42
2019-01-03T00:48:37.848Z,98210.14
2019-01-03T00:51:05.603Z,98216.62
2019-01-03T00:53:39.285Z,98218.62
2019-01-03T00:56:13.084Z,98221.21
2019-01-03T00:58:55.874Z,98229.88
2019-01-03T01:01:38.434Z,98229.95
2019-01-03T01:04:18.255Z,98236.05
2019-01-03T01:06:48.779Z,98251.30
2019-01-03T01:09:33.481Z,98246.30
2019-01-03T01:12:06.965Z,98250.09
2019-01-03T01:14:34.740Z,98255.28
2019-01-03T01:17:08.738Z,98257.38
2019-01-03T01:19:48.810Z,98254.40
2019-01-03T01:22:31.678Z,98255.59
2019-01-03T01:25:16.110Z,98266.67
2019-01-03T01:27:49.877Z,98268.47
2019-01-03T01:30:29.733Z,98268.47
2019-01-03T01:33:15.785Z,98273.05
2019-01-03T01:35:49.397Z,98280.90
2019-01-03T01:38:32.585Z,98281.12
2019-01-03T01:41:17.059Z,98284.63
2019-01-03T01:43:44.788Z,98281.21
2019-01-03T01:46:18.573Z,98290.89
2019-01-03T01:49:04.179Z,98280.84
2019-01-03T01:51:50.287Z,98288.91
2019-01-03T01:54:17.992Z,98286.69
2019-01-03T01:56:57.743Z,98285.70
2019-01-03T01:59:32.020Z,98293.77
2019-01-03T02:02:16.591Z,98291.08
2019-01-03T02:04:50.307Z,98293.69
2019-01-03T02:07:36.336Z,98297.48
2019-01-03T02:10:12.196Z,98299.84
2019-01-03T02:12:58.293Z,98293.79
2019-01-03T02:15:26.025Z,98293.45
2019-01-03T02:17:56.494Z,98290.09
2019-01-03T02:20:24.203Z,98287.52
2019-01-03T02:22:58.136Z,98290.61
2019-01-03T02:25:42.443Z,98291.60
2019-01-03T02:28:16.062Z,98296.88
2019-01-03T02:31:00.684Z,98291.09
2019-01-03T02:33:45.101Z,98289.69
2019-01-03T02:36:19.189Z,98283.90
2019-01-03T02:38:55.673Z,98285.91
2019-01-03T02:41:32.740Z,98286.70
2019-01-03T02:44:00.604Z,98299.94
2019-01-03T02:46:31.117Z,98300.27
2019-01-03T02:49:10.676Z,98289.98
2019-01-03T02:51:47.240Z,98284.72
2019-01-03T02:54:20.800Z,98292.09
2019-01-03T02:56:57.556Z,98291.59
2019-01-03T02:59:37.289Z,98295.39
2019-01-03T03:02:05.107Z,98292.17
2019-01-03T03:04:49.658Z,98282.61
2019-01-03T03:07:33.971Z,98290.00
2019-01-03T03:10:10.737Z,98285.72
2019-01-03T03:12:38.480Z,98286.42
2019-01-03T03:15:12.267Z,98286.72
2019-01-03T03:17:48.861Z,98299.47
2019-01-03T03:20:33.277Z,98277.73
2019-01-03T03:23:17.567Z,98267.95
2019-01-03T03:26:03.501Z,98266.75
2019-01-03T03:28:48.236Z,98271.55
2019-01-03T03:31:32.629Z,98267.45
2019-01-03T03:34:18.728Z,98258.19
2019-01-03T03:36:49.473Z,98254.28
2019-01-03T03:39:29.183Z,98261.88
2019-01-03T03:42:02.998Z,98256.28
2019-01-03T03:44:39.503Z,98257.08
2019-01-03T03:47:07.524Z,98270.36
2019-01-03T03:49:52.097Z,98267.27
2019-01-03T03:52:36.454Z,98249.62
2019-01-03T03:55:04.829Z,98265.56
2019-01-03T03:57:44.474Z,98259.75
2019-01-03T04:00:28.620Z,98264.45
2019-01-03T04:03:05.374Z,98262.46
2019-01-03T04:05:39.038Z,98264.38
2019-01-03T04:08:19.072Z,98258.58
2019-01-03T04:11:03.441Z,98257.58
2019-01-03T04:13:46.257Z,98261.19
2019-01-03T04:16:19.693Z,98258.47
2019-01-03T04:19:04.109Z,98265.55
2019-01-03T04:21:34.604Z,98261.48
2019-01-03T04:24:02.350Z,98259.38
2019-01-03T04:26:45.421Z,98271.31
2019-01-03T04:29:16.096Z,98266.20
2019-01-03T04:31:46.825Z,98269.82
2019-01-03T04:34:17.324Z,98271.64
2019-01-03T04:36:45.051Z,98276.32
2019-01-03T04:39:29.413Z,98285.59
2019-01-03T04:42:06.203Z,98283.47
2019-01-03T04:44:37.099Z,98279.61
2019-01-03T04:47:10.866Z,98278.81
2019-01-03T04:49:41.412Z,98283.39
2019-01-03T04:52:26.050Z,98284.20
2019-01-03T04:55:02.847Z,98288.88
2019-01-03T04:57:47.175Z,98285.17
2019-01-03T05:00:17.810Z,98295.53
2019-01-03T05:02:51.431Z,98291.75
2019-01-03T05:05:34.297Z,98294.04
2019-01-03T05:08:08.013Z,98284.89
2019-01-03T05:10:35.781Z,98281.98
2019-01-03T05:13:22.212Z,98280.88
2019-01-03T05:16:06.517Z,98276.27
2019-01-03T05:18:50.924Z,98283.72
2019-01-03T05:21:35.535Z,98285.66
2019-01-03T05:24:12.192Z,98282.30
2019-01-03T05:26:56.456Z,98275.00
2019-01-03T05:29:41.102Z,98280.20
2019-01-03T05:32:20.945Z,98277.91
2019-01-03T05:35:07.141Z,98307.52
2019-01-03T05:37:37.867Z,98290.22
2019-01-03T05:40:22.482Z,98308.26
2019-01-03T05:43:06.812Z,98296.41
2019-01-03T05:45:37.364Z,98293.91
2019-01-03T05:48:23.223Z,98301.81
2019-01-03T05:51:09.095Z,98302.98
2019-01-03T05:53:36.940Z,98315.64
2019-01-03T05:56:04.779Z,98312.01
2019-01-03T05:58:49.344Z,98319.41
2019-01-03T06:01:17.128Z,98319.75
2019-01-03T06:03:53.718Z,98327.42
2019-01-03T06:06:21.465Z,98323.64
2019-01-03T06:09:05.914Z,98329.42
2019-01-03T06:11:33.652Z,98328.02
2019-01-03T06:14:17.891Z,98327.03
2019-01-03T06:16:45.677Z,98320.55
2019-01-03T06:19:16.381Z,98331.08
2019-01-03T06:22:00.929Z,98333.17
2019-01-03T06:24:45.415Z,98323.06
2019-01-03T06:27:29.868Z,98321.92
2019-01-03T06:30:00.345Z,98328.48
2019-01-03T06:32:46.566Z,98329.42
2019-01-03T06:35:26.445Z,98329.63
2019-01-03T06:38:06.103Z,98333.31
2019-01-03T06:40:39.627Z,98332.77
2019-01-03T06:43:19.013Z,98331.33
2019-01-03T06:46:04.623Z,98334.86
2019-01-03T06:48:41.212Z,98335.61
2019-01-03T06:51:09.041Z,98342.27
2019-01-03T06:53:53.259Z,98350.45
2019-01-03T06:56:21.018Z,98352.24
2019-01-03T06:59:05.170Z,98362.55
2019-01-03T07:01:41.984Z,98366.72
2019-01-03T07:04:26.721Z,98368.64
2019-01-03T07:07:00.295Z,98367.48
2019-01-03T07:09:44.998Z,98374.31
2019-01-03T07:12:15.568Z,98370.23
2019-01-03T07:14:43.320Z,98373.69
2019-01-03T07:17:11.070Z,98372.27
2019-01-03T07:19:44.405Z,98372.76
2019-01-03T07:22:27.199Z,98376.53
2019-01-03T07:25:03.924Z,98375.06
2019-01-03T07:27:48.234Z,98387.61
2019-01-03T07:30:32.681Z,98385.69
2019-01-03T07:33:06.288Z,98385.30
2019-01-03T07:35:34.020Z,98390.09
2019-01-03T07:38:18.588Z,98390.39
2019-01-03T07:40:46.342Z,98382.56
2019-01-03T07:43:31.149Z,98390.73
2019-01-03T07:46:01.650Z,98390.95
2019-01-03T07:48:45.968Z,98402.55
2019-01-03T07:51:13.721Z,98401.64
2019-01-03T07:53:59.888Z,98402.23
2019-01-03T07:56:44.260Z,98400.28
2019-01-03T07:59:14.827Z,98402.17
2019-01-03T08:01:48.860Z,98397.89
2019-01-03T08:04:28.752Z,98394.71
2019-01-03T08:07:08.553Z,98389.12
2019-01-03T08:09:45.364Z,98395.51
2019-01-03T08:12:29.716Z,98396.61
2019-01-03T08:14:57.451Z,98395.94
2019-01-03T08:17:43.640Z,98393.05
2019-01-03T08:20:28.075Z,98395.70
2019-01-03T08:23:07.923Z,98404.52
2019-01-03T08:25:41.491Z,98395.14
2019-01-03T08:28:24.535Z,98392.46
2019-01-03T08:31:04.440Z,98393.26
2019-01-03T08:33:48.895Z,98388.91
2019-01-03T08:36:16.706Z,98393.22
2019-01-03T08:38:47.389Z,98394.28
2019-01-03T08:41:15.107Z,98392.59
2019-01-03T08:43:59.647Z,98393.89
2019-01-03T08:46:33.402Z,98391.36
2019-01-03T08:49:04.156Z,98395.85
2019-01-03T08:51:34.686Z,98392.70
2019-01-03T08:54:19.164Z,98398.11
2019-01-03T08:56:46.991Z,98396.55
2019-01-03T08:59:14.744Z,98398.20
2019-01-03T09:01:42.571Z,98399.34
2019-01-03T09:04:22.026Z,98396.06
2019-01-03T09:06:59.032Z,98392.07
2019-01-03T09:09:43.553Z,98402.58
2019-01-03T09:12:20.337Z,98398.55
2019-01-03T09:15:06.512Z,98404.72
2019-01-03T09:17:34.252Z,98406.52
2019-01-03T09:20:08.297Z,98406.55
2019-01-03T09:22:54.129Z,98416.41
2019-01-03T09:25:27.738Z,98412.30
2019-01-03T09:27:55.482Z,98416.31
2019-01-03T09:30:23.235Z,98418.28
2019-01-03T09:32:54.021Z,98407.98
2019-01-03T09:35:21.765Z,98400.73
2019-01-03T09:38:04.634Z,98397.34
2019-01-03T09:40:48.983Z,98402.03
2019-01-03T09:43:35.020Z,98404.82
2019-01-03T09:46:00.859Z,98398.73
2019-01-03T09:48:26.676Z,98393.98
2019-01-03T09:50:52.514Z,98389.98
2019-01-03T09:53:18.337Z,98391.39
2019-01-03T09:55:44.194Z,98387.59
2019-01-03T09:58:10.126Z,98387.48
2019-01-03T10:00:35.964Z,98389.39
2019-01-03T10:03:01.806Z,98384.58
2019-01-03T10:05:27.667Z,98385.05
2019-01-03T10:07:53.613Z,98381.50
2019-01-03T10:10:19.437Z,98380.78
2019-01-03T10:12:45.282Z,98380.76
2019-01-03T10:15:11.080Z,98380.78
2019-01-03T10:17:36.907Z,98378.75
2019-01-03T10:20:05.244Z,98375.56
2019-01-03T10:22:31.195Z,98367.95
2019-01-03T10:24:56.996Z,98362.09
2019-01-03T10:27:22.819Z,98363.08
2019-01-03T10:29:48.792Z,98366.98
2019-01-03T10:32:14.663Z,98363.55
2019-01-03T10:34:40.484Z,98354.31
2019-01-03T10:37:06.286Z,98357.94
2019-01-03T10:39:32.120Z,98352.95
2019-01-03T10:41:57.933Z,98345.35
2019-01-03T10:44:23.865Z,98344.43
2019-01-03T10:46:49.695Z,98354.37
2019-01-03T10:49:15.646Z,98342.41
2019-01-03T10:51:41.471Z,98337.20
2019-01-03T10:54:07.325Z,98339.09
2019-01-03T10:56:33.139Z,98334.47
2019-01-03T10:58:58.945Z,98327.60
2019-01-03T11:01:24.789Z,98327.45
2019-01-03T11:03:50.599Z,98327.77
2019-01-03T11:06:16.439Z,98322.77
2019-01-03T11:08:42.363Z,98323.66
2019-01-03T11:11:08.309Z,98315.20
2019-01-03T11:13:34.121Z,98311.59
2019-01-03T11:15:59.961Z,98305.09
2019-01-03T11:18:25.818Z,98296.39
2019-01-03T11:20:51.966Z,98289.39
2019-01-03T11:23:17.783Z,98293.00
2019-01-03T11:25:43.664Z,98297.39
2019-01-03T11:28:09.507Z,98290.49
2019-01-03T11:30:35.316Z,98294.08
2019-01-03T11:33:01.152Z,98290.84
2019-01-03T11:35:26.975Z,98286.59
2019-01-03T11:37:52.832Z,98281.23
2019-01-03T11:40:18.665Z,98282.07
2019-01-03T11:42:44.502Z,98275.91
2019-01-03T11:45:10.324Z,98277.92
2019-01-03T11:47:36.153Z,98281.64
2019-01-03T11:50:03.315Z,98277.75
2019-01-03T11:52:29.149Z,98280.22
2019-01-03T11:54:55.053Z,98281.64
2019-01-03T11:57:20.884Z,98275.53
2019-01-03T11:59:46.724Z,98271.45
2019-01-03T12:02:12.567Z,98262.13
2019-01-03T12:04:38.412Z,98277.63
2019-01-03T12:07:04.234Z,98273.80
2019-01-03T12:09:30.190Z,98274.27
2019-01-03T12:11:56.084Z,98268.78
2019-01-03T12:14:22.011Z,98261.44
2019-01-03T12:16:47.840Z,98262.67
2019-01-03T12:19:13.681Z,98265.81
2019-01-03T12:21:39.505Z,98255.05
2019-01-03T12:24:05.324Z,98250.05
2019-01-03T12:26:31.179Z,98245.63
2019-01-03T12:28:57.128Z,98244.34
2019-01-03T12:31:22.958Z,98238.67
2019-01-03T12:33:48.897Z,98237.55
2019-01-03T12:36:14.723Z,98233.81
2019-01-03T12:38:40.546Z,98237.45
2019-01-03T12:41:06.375Z,98246.33
2019-01-03T12:43:32.206Z,98244.70
2019-01-03T12:45:58.142Z,98249.88
2019-01-03T12:48:23.958Z,98242.09
2019-01-03T12:50:49.789Z,98242.67
2019-01-03T12:53:15.697Z,98233.75
2019-01-03T12:55:41.513Z,98239.72
2019-01-03T12:58:07.346Z,98236.94
2019-01-03T13:00:33.192Z,98233.03
2019-01-03T13:02:59.093Z,98224.91
2019-01-03T13:05:24.919Z,98215.52
2019-01-03T13:07:50.770Z,98210.63
2019-01-03T13:10:16.696Z,98212.33
2019-01-03T13:12:42.551Z,98220.75
2019-01-03T13:15:08.477Z,98212.80
2019-01-03T13:17:34.309Z,98236.56
2019-01-03T13:20:00.174Z,98231.28
2019-01-03T13:22:25.985Z,98231.78
2019-01-03T13:24:51.801Z,98233.88
2019-01-03T13:27:17.660Z,98238.52
2019-01-03T13:29:43.555Z,98236.34
2019-01-03T13:32:09.447Z,98236.34
2019-01-03T13:34:37.170Z,98237.44
2019-01-03T13:37:03.364Z,98234.03
2019-01-03T13:39:29.211Z,98235.97
2019-01-03T13:41:55.025Z,98234.84
2019-01-03T13:44:20.965Z,98230.02
2019-01-03T13:46:46.811Z,98234.36
2019-01-03T13:49:12.769Z,98242.38
2019-01-03T13:51:38.651Z,98249.91
2019-01-03T13:54:04.478Z,98249.13
2019-01-03T13:56:30.361Z,98253.30
2019-01-03T13:58:56.223Z,98250.03
2019-01-03T14:01:22.050Z,98244.34
2019-01-03T14:03:47.953Z,98250.33
2019-01-03T14:06:13.792Z,98244.49
2019-01-03T14:08:39.646Z,98243.13
2019-01-03T14:11:05.490Z,98238.09
2019-01-03T14:13:31.311Z,98244.42
2019-01-03T14:15:57.240Z,98244.62
2019-01-03T14:18:23.080Z,98244.70
2019-01-03T14:20:48.908Z,98251.72
2019-01-03T14:23:14.873Z,98249.41
2019-01-03T14:25:40.745Z,98246.95
2019-01-03T14:28:06.615Z,98244.63
2019-01-03T14:30:32.632Z,98255.80
2019-01-03T14:32:58.474Z,98249.25
2019-01-03T14:35:24.319Z,98247.33
2019-01-03T14:37:50.137Z,98252.33
2019-01-03T14:40:15.966Z,98247.13
2019-01-03T14:42:41.816Z,98243.84
2019-01-03T14:45:07.762Z,98245.64
2019-01-03T14:47:33.592Z,98253.50
2019-01-03T14:49:59.711Z,98248.89
2019-01-03T14:52:25.614Z,98245.66
2019-01-03T14:54:51.451Z,98243.72
2019-01-03T14:57:17.316Z,98243.51
2019-01-03T14:59:43.246Z,98241.39
2019-01-03T15:02:09.160Z,98241.54
2019-01-03T15:04:34.973Z,98241.59
2019-01-03T15:07:00.790Z,98238.22
2019-01-03T15:09:26.789Z,98237.32
2019-01-03T15:11:52.824Z,98249.11
2019-01-03T15:14:18.689Z,98255.41
2019-01-03T15:16:44.519Z,98248.41
2019-01-03T15:19:10.351Z,98244.28
2019-01-03T15:21:36.186Z,98237.36
2019-01-03T15:24:02.114Z,98246.58
2019-01-03T15:26:27.983Z,98253.73
2019-01-03T15:28:53.819Z,98251.89
2019-01-03T15:31:19.759Z,98256.14
2019-01-03T15:33:45.750Z,98252.97
2019-01-03T15:36:11.580Z,98251.58
2019-01-03T15:38:37.692Z,98250.84
2019-01-03T15:41:03.541Z,98249.97
2019-01-03T15:43:29.445Z,98254.38
2019-01-03T15:45:55.275Z,98253.95
2019-01-03T15:48:21.102Z,98248.00
2019-01-03T15:50:46.933Z,98247.25
2019-01-03T15:53:12.767Z,98253.78
2019-01-03T15:55:38.593Z,98249.84
2019-01-03T15:58:04.559Z,98247.45
2019-01-03T16:00:30.530Z,98251.34
2019-01-03T16:02:56.505Z,98243.27
2019-01-03T16:05:22.302Z,98248.13
2019-01-03T16:07:48.248Z,98250.84
2019-01-03T16:10:14.063Z,98247.37
2019-01-03T16:12:39.989Z,98255.00
2019-01-03T16:15:06.044Z,98251.69
2019-01-03T16:17:31.862Z,98262.41
2019-01-03T16:19:57.682Z,98261.95
2019-01-03T16:22:23.508Z,98258.48
2019-01-03T16:24:49.329Z,98263.77
2019-01-03T16:27:15.162Z,98261.24
2019-01-03T16:29:40.989Z,98258.94
2019-01-03T16:32:06.940Z,98259.42
2019-01-03T16:34:32.784Z,98259.28
2019-01-03T16:36:58.586Z,98253.32
2019-01-03T16:39:24.423Z,98257.22
2019-01-03T16:41:50.234Z,98250.04
2019-01-03T16:44:16.084Z,98243.34
2019-01-03T16:46:42.019Z,98244.16
2019-01-03T16:49:07.848Z,98246.52
2019-01-03T16:51:33.676Z,98244.12
2019-01-03T16:53:59.494Z,98247.29
2019-01-03T16:56:25.329Z,98250.98
2019-01-03T16:58:51.249Z,98154.49
2019-01-03T17:01:17.085Z,98245.80
2019-01-03T17:03:42.921Z,98247.95
2019-01-03T17:06:08.750Z,98251.10
2019-01-03T17:08:34.575Z,98246.70
2019-01-03T17:11:00.481Z,98242.82
2019-01-03T17:13:26.358Z,98239.45
2019-01-03T17:15:52.184Z,98238.16
2019-01-03T17:18:18.014Z,98250.47
2019-01-03T17:20:44.215Z,98240.06
2019-01-03T17:23:10.061Z,98241.36
2019-01-03T17:25:35.889Z,98239.93
2019-01-03T17:28:01.729Z,98236.25
2019-01-03T17:30:27.544Z,98234.40
2019-01-03T17:32:53.417Z,98231.72
2019-01-03T17:35:19.257Z,98236.38
2019-01-03T17:37:45.105Z,98232.06
2019-01-03T17:40:11.043Z,98235.45
2019-01-03T17:42:36.879Z,98234.06
2019-01-03T17:45:05.620Z,98237.84
2019-01-03T17:47:31.490Z,98239.50
2019-01-03T17:49:57.318Z,98238.76
2019-01-03T17:52:23.177Z,98239.56
2019-01-03T17:54:49.006Z,98244.05
2019-01-03T17:57:14.857Z,98250.91
2019-01-03T17:59:40.685Z,98248.30
2019-01-03T18:02:06.588Z,98252.12
2019-01-03T18:04:32.392Z,98252.33
2019-01-03T18:06:58.226Z,98241.74
2019-01-03T18:09:24.038Z,98243.55
2019-01-03T18:11:49.864Z,98250.61
2019-01-03T18:14:15.754Z,98251.62
2019-01-03T18:16:41.707Z,98250.98
2019-01-03T18:19:07.869Z,98271.17
2019-01-03T18:21:33.698Z,98250.28
2019-01-03T18:23:59.554Z,98254.24
2019-01-03T18:26:25.384Z,98253.80
2019-01-03T18:28:51.308Z,98254.55
2019-01-03T18:31:17.123Z,98256.48
2019-01-03T18:33:42.956Z,98258.28
2019-01-03T18:36:08.804Z,98247.75
2019-01-03T18:38:34.651Z,98256.92
2019-01-03T18:41:00.471Z,98258.22
2019-01-03T18:43:26.293Z,98249.23
2019-01-03T18:45:52.133Z,98249.66
2019-01-03T18:48:18.082Z,98252.41
2019-01-03T18:50:44.017Z,98252.08
2019-01-03T18:53:09.861Z,98248.76
2019-01-03T18:55:35.710Z,98250.89
2019-01-03T18:58:01.564Z,98255.47
2019-01-03T19:00:27.419Z,98255.97
2019-01-03T19:02:53.255Z,98259.94
2019-01-03T19:05:19.092Z,98252.33
2019-01-03T19:07:44.926Z,98249.94
2019-01-03T19:10:10.765Z,98250.03
2019-01-03T19:12:36.684Z,98250.78
2019-01-03T19:15:03.605Z,98240.35
2019-01-03T19:17:29.435Z,98244.41
2019-01-03T19:19:55.256Z,98249.19
2019-01-03T19:22:21.074Z,98247.93
2019-01-03T19:24:46.906Z,98253.48
2019-01-03T19:27:12.772Z,98245.77
2019-01-03T19:29:38.590Z,98243.74
2019-01-03T19:32:04.444Z,98238.89
2019-01-03T19:34:30.290Z,98246.89
2019-01-03T19:36:56.346Z,98234.92
2019-01-03T19:39:22.200Z,98238.27
2019-01-03T19:41:48.044Z,98243.58
2019-01-03T19:44:13.868Z,98246.55
2019-01-03T19:46:39.683Z,98249.94
2019-01-03T19:49:05.508Z,98254.27
2019-01-03T19:51:31.357Z,98256.06
2019-01-03T19:53:57.222Z,98263.97
2019-01-03T19:56:23.073Z,98254.69
2019-01-03T19:58:49.007Z,98244.66
2019-01-03T20:01:14.854Z,98248.36
2019-01-03T20:03:40.690Z,98248.44
2019-01-03T20:06:06.513Z,98254.00
2019-01-03T20:08:32.359Z,98255.14
2019-01-03T20:10:58.191Z,98264.65
2019-01-03T20:13:24.022Z,98271.64
2019-01-03T20:15:49.848Z,98283.56
2019-01-03T20:18:15.788Z,98274.27
2019-01-03T20:20:41.739Z,98269.66
2019-01-03T20:23:07.704Z,98267.03
2019-01-03T20:25:34.602Z,98272.34
2019-01-03T20:28:00.709Z,98265.73
2019-01-03T20:30:26.564Z,98252.09
2019-01-03T20:32:52.402Z,98247.86
2019-01-03T20:35:18.236Z,98257.23
2019-01-03T20:37:44.157Z,98254.42
2019-01-03T20:40:10.350Z,98253.08
2019-01-03T20:42:36.523Z,98191.25
2019-01-03T20:45:05.364Z,98259.20
2019-01-03T20:47:31.233Z,98257.03
2019-01-03T20:49:57.114Z,98264.59
2019-01-03T20:52:23.065Z,98263.68
2019-01-03T20:54:48.927Z,98264.64
2019-01-03T20:57:14.846Z,98272.55
2019-01-03T20:59:40.695Z,98272.93
2019-01-03T21:02:06.649Z,98282.90
2019-01-03T21:04:32.512Z,98283.70
2019-01-03T21:06:58.389Z,98288.80
2019-01-03T21:09:24.463Z,98282.48
2019-01-03T21:11:50.536Z,98283.11
2019-01-03T21:14:16.400Z,98285.88
2019-01-03T21:16:42.244Z,98282.02
2019-01-03T21:19:08.130Z,98278.30
2019-01-03T21:21:34.503Z,98285.75
2019-01-03T21:24:00.448Z,98289.05
2019-01-03T21:26:26.322Z,98295.44
2019-01-03T21:28:52.198Z,98305.77
2019-01-03T21:31:18.116Z,98302.83
2019-01-03T21:33:43.980Z,98306.52
2019-01-03T21:36:09.921Z,98308.58
2019-01-03T21:38:36.173Z,98310.50
2019-01-03T21:41:02.257Z,98306.92
2019-01-03T21:43:28.124Z,98311.70
2019-01-03T21:45:53.953Z,98311.73
2019-01-03T21:48:19.834Z,98310.13
2019-01-03T21:50:45.784Z,98309.24
2019-01-03T21:53:11.646Z,98309.16
2019-01-03T21:55:37.485Z,98306.36
2019-01-03T21:58:03.353Z,98304.27
2019-01-03T22:00:29.178Z,98301.23
2019-01-03T22:02:55.018Z,98300.16
2019-01-03T22:05:20.871Z,98297.47
2019-01-03T22:07:46.721Z,98292.08
2019-01-03T22:10:12.566Z,98302.08
2019-01-03T22:12:38.448Z,98299.19
2019-01-03T22:15:06.181Z,98296.56
2019-01-03T22:17:32.031Z,98296.47
2019-01-03T22:19:57.880Z,98294.77
2019-01-03T22:22:23.798Z,98295.06
2019-01-03T22:24:49.600Z,98302.26
2019-01-03T22:27:15.554Z,98297.59
2019-01-03T22:29:41.379Z,98289.41
2019-01-03T22:32:07.207Z,98295.06
2019-01-03T22:34:33.048Z,98291.69
2019-01-03T22:36:58.889Z,98293.39
2019-01-03T22:39:24.752Z,98291.61
2019-01-03T22:41:50.594Z,98291.88
2019-01-03T22:44:16.450Z,98294.27
2019-01-03T22:46:42.302Z,98299.07
2019-01-03T22:49:08.227Z,98297.18
2019-01-03T22:51:34.417Z,98295.39
2019-01-03T22:54:00.400Z,98298.19
2019-01-03T22:56:26.309Z,98296.06
2019-01-03T22:58:52.134Z,98298.84
2019-01-03T23:01:18.290Z,98295.98
2019-01-03T23:03:44.096Z,98292.89
2019-01-03T23:06:10.074Z,98294.47
2019-01-03T23:08:36.193Z,98295.47
2019-01-03T23:11:02.050Z,98301.45
2019-01-03T23:13:27.877Z,98299.38
2019-01-03T23:15:53.717Z,98292.69
2019-01-03T23:18:19.552Z,98297.35
2019-01-03T23:20:45.384Z,98296.17
2019-01-03T23:23:11.320Z,98300.87
2019-01-03T23:25:37.227Z,98303.69
2019-01-03T23:28:03.063Z,98305.07
2019-01-03T23:30:28.906Z,98301.56
2019-01-03T23:32:54.769Z,98302.25
2019-01-03T23:35:20.626Z,98308.25
2019-01-03T23:37:46.451Z,98314.03
2019-01-03T23:40:12.336Z,98308.95
2019-01-03T23:42:38.194Z,98305.75
2019-01-03T23:45:09.899Z,98300.07
2019-01-03T23:47:35.813Z,98300.07
2019-01-03T23:50:02.246Z,98295.88
2019-01-03T23:52:28.163Z,98292.97
2019-01-03T23:54:54.106Z,98299.66
2019-01-03T23:57:20.088Z,98290.99
2019-01-03T23:59:45.977Z,98294.89
